createdAt,value
2024-04-21T00:00:30.181Z,1010.54
2024-04-21T00:01:31.168Z,1010.53
2024-04-21T00:02:31.606Z,1010.52
2024-04-21T00:03:32.555Z,1010.51
2024-04-21T00:04:33.137Z,1010.50
2024-04-21T00:05:33.587Z,1010.49
2024-04-21T00:06:34.534Z,1010.48
2024-04-21T00:07:35.456Z,1010.47
2024-04-21T00:08:36.370Z,1010.46
2024-04-21T00:09:37.272Z,1010.44
2024-04-21T00:10:38.245Z,1010.43
2024-04-21T00:11:39.168Z,1010.43
2024-04-21T00:12:40.029Z,1010.42
2024-04-21T00:13:41.770Z,1010.43
2024-04-21T00:14:41.686Z,1010.43
2024-04-21T00:15:42.692Z,1010.43
2024-04-21T00:16:43.604Z,1010.41
2024-04-21T00:17:44.016Z,1010.40
2024-04-21T00:18:44.964Z,1010.39
2024-04-21T00:19:45.816Z,1010.39
2024-04-21T00:20:47.273Z,1010.38
2024-04-21T00:21:47.691Z,1010.37
2024-04-21T00:22:48.576Z,1010.37
2024-04-21T00:23:49.510Z,1010.36
2024-04-21T00:24:50.456Z,1010.35
2024-04-21T00:25:51.357Z,1010.37
2024-04-21T00:26:52.253Z,1010.37
2024-04-21T00:27:53.203Z,1010.39
2024-04-21T00:28:54.072Z,1010.38
2024-04-21T00:29:55.008Z,1010.38
2024-04-21T00:30:55.989Z,1010.38
2024-04-21T00:31:56.890Z,1010.38
2024-04-21T00:32:58.846Z,1010.37
2024-04-21T00:33:59.340Z,1010.35
2024-04-21T00:34:59.264Z,1010.36
2024-04-21T00:36:00.190Z,1010.36
2024-04-21T00:37:01.145Z,1010.36
2024-04-21T00:38:02.024Z,1010.35
2024-04-21T00:39:02.983Z,1010.36
2024-04-21T00:40:04.074Z,1010.35
2024-04-21T00:41:04.515Z,1010.33
2024-04-21T00:42:05.524Z,1010.33
2024-04-21T00:43:06.459Z,1010.34
2024-04-21T00:44:07.385Z,1010.36
2024-04-21T00:45:12.729Z,1010.37
2024-04-21T00:46:10.109Z,1010.38
2024-04-21T00:47:10.091Z,1010.37
2024-04-21T00:48:11.002Z,1010.37
2024-04-21T00:49:12.859Z,1010.36
2024-04-21T00:50:12.752Z,1010.38
2024-04-21T00:51:13.669Z,1010.39
2024-04-21T00:52:14.646Z,1010.40
2024-04-21T00:53:16.281Z,1010.42
2024-04-21T00:54:16.217Z,1010.43
2024-04-21T00:55:17.128Z,1010.43
2024-04-21T00:56:18.781Z,1010.42
2024-04-21T00:57:18.719Z,1010.41
2024-04-21T00:58:19.730Z,1010.38
2024-04-21T00:59:20.787Z,1010.36
2024-04-21T01:00:20.712Z,1010.32
2024-04-21T01:01:21.675Z,1010.30
2024-04-21T01:02:22.629Z,1010.28
2024-04-21T01:03:23.544Z,1010.26
2024-04-21T01:04:24.525Z,1010.24
2024-04-21T01:05:24.966Z,1010.24
2024-04-21T01:06:25.851Z,1010.25
2024-04-21T01:07:26.794Z,1010.25
2024-04-21T01:08:27.687Z,1010.25
2024-04-21T01:09:29.297Z,1010.24
2024-04-21T01:10:29.782Z,1010.23
2024-04-21T01:11:29.695Z,1010.23
2024-04-21T01:12:30.664Z,1010.23
2024-04-21T01:13:31.577Z,1010.23
2024-04-21T01:14:32.479Z,1010.24
2024-04-21T01:15:33.414Z,1010.25
2024-04-21T01:16:34.329Z,1010.26
2024-04-21T01:17:35.769Z,1010.27
2024-04-21T01:18:36.192Z,1010.29
2024-04-21T01:19:37.106Z,1010.30
2024-04-21T01:20:38.016Z,1010.31
2024-04-21T01:21:38.951Z,1010.32
2024-04-21T01:22:39.853Z,1010.31
2024-04-21T01:23:40.768Z,1010.31
2024-04-21T01:24:41.675Z,1010.31
2024-04-21T01:25:42.589Z,1010.31
2024-04-21T01:26:44.283Z,1010.32
2024-04-21T01:27:44.921Z,1010.34
2024-04-21T01:28:44.794Z,1010.34
2024-04-21T01:29:45.698Z,1010.35
2024-04-21T01:30:46.640Z,1010.35
2024-04-21T01:31:47.526Z,1010.34
2024-04-21T01:32:48.477Z,1010.32
2024-04-21T01:33:49.461Z,1010.32
2024-04-21T01:34:50.358Z,1010.32
2024-04-21T01:35:51.280Z,1010.31
2024-04-21T01:36:52.203Z,1010.31
2024-04-21T01:37:53.082Z,1010.30
2024-04-21T01:38:53.989Z,1010.29
2024-04-21T01:39:55.091Z,1010.28
2024-04-21T01:40:55.466Z,1010.28
2024-04-21T01:41:56.374Z,1010.28
2024-04-21T01:42:57.304Z,1010.28
2024-04-21T01:43:58.274Z,1010.29
2024-04-21T01:44:59.174Z,1010.30
2024-04-21T01:46:00.131Z,1010.30
2024-04-21T01:47:01.816Z,1010.31
2024-04-21T01:48:01.854Z,1010.31
2024-04-21T01:49:02.823Z,1010.32
2024-04-21T01:50:03.710Z,1010.33
2024-04-21T01:51:05.295Z,1010.34
2024-04-21T01:52:05.219Z,1010.35
2024-04-21T01:53:06.111Z,1010.36
2024-04-21T01:54:07.088Z,1010.36
2024-04-21T01:55:08.007Z,1010.36
2024-04-21T01:56:08.883Z,1010.34
2024-04-21T01:57:09.801Z,1010.33
2024-04-21T01:58:10.724Z,1010.32
2024-04-21T01:59:11.620Z,1010.30
2024-04-21T02:00:12.521Z,1010.29
2024-04-21T02:01:13.515Z,1010.28
2024-04-21T02:02:13.959Z,1010.28
2024-04-21T02:03:14.871Z,1010.27
2024-04-21T02:04:15.865Z,1010.27
2024-04-21T02:05:16.749Z,1010.26
2024-04-21T02:06:17.655Z,1010.26
2024-04-21T02:07:18.697Z,1010.26
2024-04-21T02:08:19.161Z,1010.27
2024-04-21T02:09:20.059Z,1010.27
2024-04-21T02:10:21.104Z,1010.28
2024-04-21T02:11:22.329Z,1010.29
2024-04-21T02:12:22.240Z,1010.31
2024-04-21T02:13:23.222Z,1010.33
2024-04-21T02:14:24.127Z,1010.34
2024-04-21T02:15:24.667Z,1010.36
2024-04-21T02:16:25.578Z,1010.37
2024-04-21T02:17:26.552Z,1010.38
2024-04-21T02:18:27.032Z,1010.40
2024-04-21T02:19:28.889Z,1010.39
2024-04-21T02:20:28.464Z,1010.39
2024-04-21T02:21:29.372Z,1010.40
2024-04-21T02:22:30.293Z,1010.39
2024-04-21T02:23:31.194Z,1010.39
2024-04-21T02:24:32.096Z,1010.38
2024-04-21T02:25:33.022Z,1010.38
2024-04-21T02:26:33.924Z,1010.36
2024-04-21T02:27:34.863Z,1010.34
2024-04-21T02:28:35.764Z,1010.33
2024-04-21T02:29:36.670Z,1010.32
2024-04-21T02:30:37.584Z,1010.32
2024-04-21T02:31:39.297Z,1010.32
2024-04-21T02:32:39.870Z,1010.34
2024-04-21T02:33:39.772Z,1010.37
2024-04-21T02:34:40.678Z,1010.40
2024-04-21T02:35:41.612Z,1010.41
2024-04-21T02:36:42.536Z,1010.42
2024-04-21T02:37:43.441Z,1010.43
2024-04-21T02:38:44.381Z,1010.44
2024-04-21T02:39:45.359Z,1010.46
2024-04-21T02:40:46.286Z,1010.46
2024-04-21T02:41:47.179Z,1010.46
2024-04-21T02:42:48.097Z,1010.46
2024-04-21T02:43:49.003Z,1010.46
2024-04-21T02:44:49.894Z,1010.44
2024-04-21T02:45:50.837Z,1010.43
2024-04-21T02:46:51.764Z,1010.43
2024-04-21T02:47:52.742Z,1010.42
2024-04-21T02:48:53.647Z,1010.42
2024-04-21T02:49:54.572Z,1010.43
2024-04-21T02:50:55.505Z,1010.44
2024-04-21T02:51:56.433Z,1010.45
2024-04-21T02:52:58.290Z,1010.47
2024-04-21T02:53:58.208Z,1010.49
2024-04-21T02:54:59.154Z,1010.50
2024-04-21T02:56:00.058Z,1010.51
2024-04-21T02:57:00.940Z,1010.53
2024-04-21T02:58:02.818Z,1010.54
2024-04-21T02:59:02.723Z,1010.56
2024-04-21T03:00:03.630Z,1010.59
2024-04-21T03:01:04.619Z,1010.61
2024-04-21T03:02:05.054Z,1010.62
2024-04-21T03:03:05.959Z,1010.62
2024-04-21T03:04:07.020Z,1010.64
2024-04-21T03:05:08.035Z,1010.65
2024-04-21T03:06:07.943Z,1010.66
2024-04-21T03:07:08.897Z,1010.67
2024-04-21T03:08:09.853Z,1010.68
2024-04-21T03:09:10.774Z,1010.69
2024-04-21T03:10:11.718Z,1010.69
2024-04-21T03:11:12.630Z,1010.68
2024-04-21T03:12:13.260Z,1010.68
2024-04-21T03:13:14.190Z,1010.67
2024-04-21T03:14:15.086Z,1010.67
2024-04-21T03:15:16.794Z,1010.66
2024-04-21T03:16:16.806Z,1010.66
2024-04-21T03:17:17.699Z,1010.67
2024-04-21T03:18:18.615Z,1010.66
2024-04-21T03:19:19.557Z,1010.66
2024-04-21T03:20:20.463Z,1010.67
2024-04-21T03:21:21.382Z,1010.68
2024-04-21T03:22:22.370Z,1010.67
2024-04-21T03:23:23.810Z,1010.67
2024-04-21T03:24:24.206Z,1010.70
2024-04-21T03:25:25.118Z,1010.71
2024-04-21T03:26:26.822Z,1010.72
2024-04-21T03:27:27.300Z,1010.71
2024-04-21T03:28:27.269Z,1010.70
2024-04-21T03:29:28.174Z,1010.70
2024-04-21T03:30:29.066Z,1010.71
2024-04-21T03:31:30.013Z,1010.71
2024-04-21T03:32:31.009Z,1010.70
2024-04-21T03:33:31.509Z,1010.72
2024-04-21T03:34:32.393Z,1010.72
2024-04-21T03:35:33.302Z,1010.72
2024-04-21T03:36:34.235Z,1010.71
2024-04-21T03:37:35.174Z,1010.69
2024-04-21T03:38:36.074Z,1010.68
2024-04-21T03:39:38.817Z,1010.68
2024-04-21T03:40:37.714Z,1010.68
2024-04-21T03:41:38.660Z,1010.69
2024-04-21T03:42:39.554Z,1010.70
2024-04-21T03:43:40.452Z,1010.72
2024-04-21T03:44:41.361Z,1010.72
2024-04-21T03:45:42.551Z,1010.73
2024-04-21T03:46:43.077Z,1010.74
2024-04-21T03:47:43.770Z,1010.75
2024-04-21T03:48:44.239Z,1010.75
2024-04-21T03:49:45.136Z,1010.75
2024-04-21T03:50:46.096Z,1010.76
2024-04-21T03:51:47.057Z,1010.77
2024-04-21T03:52:47.929Z,1010.78
2024-04-21T03:53:48.847Z,1010.78
2024-04-21T03:54:49.753Z,1010.79
2024-04-21T03:55:50.669Z,1010.79
2024-04-21T03:56:51.598Z,1010.80
2024-04-21T03:57:52.505Z,1010.81
2024-04-21T03:58:53.404Z,1010.83
2024-04-21T03:59:54.352Z,1010.83
2024-04-21T04:00:55.452Z,1010.82
2024-04-21T04:01:55.950Z,1010.83
2024-04-21T04:02:56.840Z,1010.83
2024-04-21T04:03:57.787Z,1010.83
2024-04-21T04:04:58.917Z,1010.82
2024-04-21T04:05:59.290Z,1010.81
2024-04-21T04:07:00.252Z,1010.80
2024-04-21T04:08:01.171Z,1010.80
2024-04-21T04:09:02.047Z,1010.81
2024-04-21T04:10:03.096Z,1010.83
2024-04-21T04:11:03.561Z,1010.85
2024-04-21T04:12:04.454Z,1010.87
2024-04-21T04:13:05.395Z,1010.89
2024-04-21T04:14:06.306Z,1010.90
2024-04-21T04:15:07.239Z,1010.91
2024-04-21T04:16:08.208Z,1010.93
2024-04-21T04:17:09.121Z,1010.92
2024-04-21T04:18:10.062Z,1010.90
2024-04-21T04:19:11.056Z,1010.89
2024-04-21T04:20:11.946Z,1010.88
2024-04-21T04:21:12.842Z,1010.88
2024-04-21T04:22:13.771Z,1010.91
2024-04-21T04:23:14.691Z,1010.95
2024-04-21T04:24:15.621Z,1011.00
2024-04-21T04:25:16.698Z,1011.03
2024-04-21T04:26:17.101Z,1011.04
2024-04-21T04:27:18.027Z,1011.05
2024-04-21T04:28:19.302Z,1011.06
2024-04-21T04:29:19.781Z,1011.08
2024-04-21T04:30:21.327Z,1011.09
2024-04-21T04:31:21.303Z,1011.11
2024-04-21T04:32:22.184Z,1011.12
2024-04-21T04:33:23.201Z,1011.14
2024-04-21T04:34:23.625Z,1011.15
2024-04-21T04:35:24.547Z,1011.15
2024-04-21T04:36:25.436Z,1011.15
2024-04-21T04:37:26.424Z,1011.15
2024-04-21T04:38:28.827Z,1011.16
2024-04-21T04:39:28.216Z,1011.16
2024-04-21T04:40:29.156Z,1011.18
2024-04-21T04:41:29.789Z,1011.19
2024-04-21T04:42:30.745Z,1011.20
2024-04-21T04:43:31.627Z,1011.21
2024-04-21T04:44:32.527Z,1011.20
2024-04-21T04:45:33.435Z,1011.18
2024-04-21T04:46:34.378Z,1011.17
2024-04-21T04:47:35.380Z,1011.18
2024-04-21T04:48:35.862Z,1011.20
2024-04-21T04:49:36.714Z,1011.24
2024-04-21T04:50:37.624Z,1011.27
2024-04-21T04:51:38.546Z,1011.31
2024-04-21T04:52:39.452Z,1011.34
2024-04-21T04:53:42.967Z,1011.36
2024-04-21T04:54:40.932Z,1011.38
2024-04-21T04:55:41.837Z,1011.40
2024-04-21T04:56:42.769Z,1011.43
2024-04-21T04:57:44.326Z,1011.43
2024-04-21T04:58:44.215Z,1011.47
2024-04-21T04:59:45.125Z,1011.48
2024-04-21T05:00:46.122Z,1011.50
2024-04-21T05:01:47.394Z,1011.50
2024-04-21T05:02:48.911Z,1011.49
2024-04-21T05:03:48.826Z,1011.46
2024-04-21T05:04:49.821Z,1011.48
2024-04-21T05:05:50.768Z,1011.50
2024-04-21T05:06:51.701Z,1011.52
2024-04-21T05:07:52.576Z,1011.53
2024-04-21T05:08:53.486Z,1011.57
2024-04-21T05:09:54.428Z,1011.57
2024-04-21T05:10:55.405Z,1011.60
2024-04-21T05:11:56.267Z,1011.64
2024-04-21T05:12:57.254Z,1011.66
2024-04-21T05:13:58.144Z,1011.68
2024-04-21T05:14:59.067Z,1011.69
2024-04-21T05:16:00.038Z,1011.75
2024-04-21T05:17:00.945Z,1011.78
2024-04-21T05:18:02.002Z,1011.81
2024-04-21T05:19:02.482Z,1011.83
2024-04-21T05:20:04.318Z,1011.87
2024-04-21T05:21:04.293Z,1011.88
2024-04-21T05:22:05.883Z,1011.89
2024-04-21T05:23:05.906Z,1011.89
2024-04-21T05:24:06.358Z,1011.93
2024-04-21T05:25:07.331Z,1011.92
2024-04-21T05:26:08.218Z,1011.96
2024-04-21T05:27:09.144Z,1011.98
2024-04-21T05:28:10.849Z,1012.00
2024-04-21T05:29:10.764Z,1012.02
2024-04-21T05:30:11.363Z,1012.06
2024-04-21T05:31:12.302Z,1012.06
2024-04-21T05:32:13.234Z,1012.09
2024-04-21T05:33:14.851Z,1012.11
2024-04-21T05:34:14.784Z,1012.12
2024-04-21T05:35:15.658Z,1012.14
2024-04-21T05:36:16.582Z,1012.16
2024-04-21T05:37:17.522Z,1012.18
2024-04-21T05:38:17.986Z,1012.20
2024-04-21T05:39:18.882Z,1012.21
2024-04-21T05:40:19.844Z,1012.25
2024-04-21T05:41:20.755Z,1012.27
2024-04-21T05:42:21.657Z,1012.28
2024-04-21T05:43:22.620Z,1012.24
2024-04-21T05:44:23.519Z,1012.24
2024-04-21T05:45:24.403Z,1012.23
2024-04-21T05:46:25.894Z,1012.26
2024-04-21T05:47:26.362Z,1012.27
2024-04-21T05:48:26.883Z,1012.29
2024-04-21T05:49:27.776Z,1012.28
2024-04-21T05:50:28.669Z,1012.26
2024-04-21T05:51:29.513Z,1012.22
2024-04-21T05:52:30.498Z,1012.20
2024-04-21T05:53:30.930Z,1012.20
2024-04-21T05:54:31.869Z,1012.21
2024-04-21T05:55:32.776Z,1012.25
2024-04-21T05:56:33.747Z,1012.27
2024-04-21T05:57:34.660Z,1012.30
2024-04-21T05:58:35.616Z,1012.29
2024-04-21T05:59:37.328Z,1012.29
2024-04-21T06:00:37.282Z,1012.30
2024-04-21T06:01:38.237Z,1012.31
2024-04-21T06:02:38.749Z,1012.33
2024-04-21T06:03:39.698Z,1012.33
2024-04-21T06:04:40.688Z,1012.37
2024-04-21T06:05:41.139Z,1012.42
2024-04-21T06:06:42.064Z,1012.45
2024-04-21T06:07:42.963Z,1012.49
2024-04-21T06:08:43.868Z,1012.52
2024-04-21T06:09:44.774Z,1012.57
2024-04-21T06:10:45.715Z,1012.55
2024-04-21T06:11:46.671Z,1012.53
2024-04-21T06:12:47.580Z,1012.58
2024-04-21T06:13:48.537Z,1012.57
2024-04-21T06:14:49.414Z,1012.56
2024-04-21T06:15:50.368Z,1012.56
2024-04-21T06:16:51.241Z,1012.55
2024-04-21T06:17:52.263Z,1012.56
2024-04-21T06:18:53.229Z,1012.55
2024-04-21T06:19:53.718Z,1012.56
2024-04-21T06:20:54.661Z,1012.57
2024-04-21T06:21:55.600Z,1012.59
2024-04-21T06:22:56.495Z,1012.60
2024-04-21T06:23:57.384Z,1012.61
2024-04-21T06:24:58.329Z,1012.62
2024-04-21T06:25:59.216Z,1012.61
2024-04-21T06:27:00.156Z,1012.60
2024-04-21T06:28:01.074Z,1012.58
2024-04-21T06:29:01.996Z,1012.58
2024-04-21T06:30:02.925Z,1012.60
2024-04-21T06:31:04.930Z,1012.63
2024-04-21T06:32:04.816Z,1012.64
2024-04-21T06:33:05.725Z,1012.65
2024-04-21T06:34:07.369Z,1012.69
2024-04-21T06:35:09.127Z,1012.68
2024-04-21T06:36:07.927Z,1012.68
2024-04-21T06:37:08.902Z,1012.69
2024-04-21T06:38:09.770Z,1012.70
2024-04-21T06:39:11.402Z,1012.71
2024-04-21T06:40:12.759Z,1012.74
2024-04-21T06:41:12.070Z,1012.75
2024-04-21T06:42:12.996Z,1012.77
2024-04-21T06:43:13.926Z,1012.79
2024-04-21T06:44:14.852Z,1012.78
2024-04-21T06:45:15.739Z,1012.79
2024-04-21T06:46:16.670Z,1012.79
2024-04-21T06:47:17.628Z,1012.78
2024-04-21T06:48:18.560Z,1012.78
2024-04-21T06:49:19.519Z,1012.80
2024-04-21T06:50:20.439Z,1012.83
2024-04-21T06:51:21.314Z,1012.82
2024-04-21T06:52:22.323Z,1012.81
2024-04-21T06:53:23.233Z,1012.86
2024-04-21T06:54:24.141Z,1012.87
2024-04-21T06:55:25.165Z,1012.88
2024-04-21T06:56:25.597Z,1012.90
2024-04-21T06:57:26.548Z,1012.90
2024-04-21T06:58:27.525Z,1012.91
2024-04-21T06:59:28.426Z,1012.96
2024-04-21T07:00:29.313Z,1012.91
2024-04-21T07:01:30.295Z,1012.93
2024-04-21T07:02:31.248Z,1012.96
2024-04-21T07:03:32.215Z,1012.98
2024-04-21T07:04:33.111Z,1013.01
2024-04-21T07:05:33.979Z,1012.99
2024-04-21T07:06:34.933Z,1013.00
2024-04-21T07:07:35.863Z,1012.99
2024-04-21T07:08:36.773Z,1013.04
2024-04-21T07:09:37.668Z,1013.03
2024-04-21T07:10:38.575Z,1013.02
2024-04-21T07:11:39.573Z,1013.07
2024-04-21T07:12:41.328Z,1013.08
2024-04-21T07:13:41.238Z,1013.09
2024-04-21T07:14:42.182Z,1013.11
2024-04-21T07:15:43.056Z,1013.13
2024-04-21T07:16:43.983Z,1013.16
2024-04-21T07:17:44.947Z,1013.20
2024-04-21T07:18:45.996Z,1013.19
2024-04-21T07:19:46.434Z,1013.23
2024-04-21T07:20:47.358Z,1013.26
2024-04-21T07:21:48.328Z,1013.25
2024-04-21T07:22:49.252Z,1013.30
2024-04-21T07:23:50.835Z,1013.31
2024-04-21T07:24:50.815Z,1013.33
2024-04-21T07:25:51.774Z,1013.33
2024-04-21T07:26:52.214Z,1013.37
2024-04-21T07:27:53.194Z,1013.42
2024-04-21T07:28:54.843Z,1013.44
2024-04-21T07:29:54.778Z,1013.46
2024-04-21T07:30:55.903Z,1013.46
2024-04-21T07:31:56.871Z,1013.48
2024-04-21T07:32:57.288Z,1013.52
2024-04-21T07:33:58.214Z,1013.53
2024-04-21T07:34:59.157Z,1013.57
2024-04-21T07:36:00.075Z,1013.57
2024-04-21T07:37:00.996Z,1013.60
2024-04-21T07:38:05.041Z,1013.64
2024-04-21T07:39:02.789Z,1013.63
2024-04-21T07:40:03.826Z,1013.64
2024-04-21T07:41:04.228Z,1013.63
2024-04-21T07:42:05.131Z,1013.65
2024-04-21T07:43:06.065Z,1013.67
2024-04-21T07:44:06.978Z,1013.67
2024-04-21T07:45:07.892Z,1013.64
2024-04-21T07:46:08.800Z,1013.68
2024-04-21T07:47:09.685Z,1013.67
2024-04-21T07:48:10.706Z,1013.67
2024-04-21T07:49:11.914Z,1013.67
2024-04-21T07:50:11.789Z,1013.67
2024-04-21T07:51:15.407Z,1013.69
2024-04-21T07:52:14.361Z,1013.69
2024-04-21T07:53:14.286Z,1013.69
2024-04-21T07:54:15.210Z,1013.73
2024-04-21T07:55:16.174Z,1013.76
2024-04-21T07:56:17.071Z,1013.78
2024-04-21T07:57:17.981Z,1013.78
2024-04-21T07:58:18.964Z,1013.77
2024-04-21T07:59:19.848Z,1013.81
2024-04-21T08:00:20.753Z,1013.83
2024-04-21T08:01:21.842Z,1013.88
2024-04-21T08:02:22.326Z,1013.87
2024-04-21T08:03:23.287Z,1013.87
2024-04-21T08:04:24.208Z,1013.88
2024-04-21T08:05:25.083Z,1013.89
2024-04-21T08:06:26.092Z,1013.91
2024-04-21T08:07:27.065Z,1013.91
2024-04-21T08:08:27.963Z,1013.92
2024-04-21T08:09:30.947Z,1013.95
2024-04-21T08:10:29.652Z,1013.99
2024-04-21T08:11:30.583Z,1013.97
2024-04-21T08:12:31.499Z,1014.02
2024-04-21T08:13:32.471Z,1014.02
2024-04-21T08:14:33.334Z,1014.03
2024-04-21T08:15:36.950Z,1014.06
2024-04-21T08:16:34.879Z,1014.04
2024-04-21T08:17:35.922Z,1014.07
2024-04-21T08:18:36.540Z,1014.08
2024-04-21T08:19:37.008Z,1014.04
2024-04-21T08:20:37.881Z,1014.05
2024-04-21T08:21:38.813Z,1014.07
2024-04-21T08:22:39.737Z,1014.07
2024-04-21T08:23:40.619Z,1014.07
2024-04-21T08:24:41.527Z,1014.04
2024-04-21T08:25:42.438Z,1014.05
2024-04-21T08:26:43.378Z,1014.03
2024-04-21T08:27:44.275Z,1014.06
2024-04-21T08:28:45.182Z,1014.07
2024-04-21T08:29:46.075Z,1014.10
2024-04-21T08:30:47.873Z,1014.09
2024-04-21T08:31:47.774Z,1014.07
2024-04-21T08:32:48.799Z,1014.07
2024-04-21T08:33:49.253Z,1014.07
2024-04-21T08:34:50.124Z,1014.08
2024-04-21T08:35:51.095Z,1014.10
2024-04-21T08:36:51.993Z,1014.11
2024-04-21T08:37:53.846Z,1014.09
2024-04-21T08:38:53.750Z,1014.11
2024-04-21T08:39:54.723Z,1014.10
2024-04-21T08:40:56.342Z,1014.14
2024-04-21T08:41:56.261Z,1014.12
2024-04-21T08:42:57.189Z,1014.13
2024-04-21T08:43:58.051Z,1014.17
2024-04-21T08:44:58.988Z,1014.14
2024-04-21T08:45:59.913Z,1014.14
2024-04-21T08:47:00.798Z,1014.17
2024-04-21T08:48:01.821Z,1014.12
2024-04-21T08:49:02.293Z,1014.16
2024-04-21T08:50:03.195Z,1014.13
2024-04-21T08:51:04.116Z,1014.14
2024-04-21T08:52:05.063Z,1014.19
2024-04-21T08:53:05.946Z,1014.16
2024-04-21T08:54:07.840Z,1014.14
2024-04-21T08:55:07.828Z,1014.22
2024-04-21T08:56:09.346Z,1014.18
2024-04-21T08:57:09.247Z,1014.14
2024-04-21T08:58:10.171Z,1014.16
2024-04-21T08:59:11.139Z,1014.16
2024-04-21T09:00:12.030Z,1014.26
2024-04-21T09:01:13.062Z,1014.23
2024-04-21T09:02:13.461Z,1014.22
2024-04-21T09:03:14.372Z,1014.20
2024-04-21T09:04:15.343Z,1014.29
2024-04-21T09:05:16.242Z,1014.25
2024-04-21T09:06:17.151Z,1014.27
2024-04-21T09:07:18.103Z,1014.22
2024-04-21T09:08:19.032Z,1014.22
2024-04-21T09:09:19.945Z,1014.23
2024-04-21T09:10:20.866Z,1014.25
2024-04-21T09:11:21.792Z,1014.26
2024-04-21T09:12:22.719Z,1014.28
2024-04-21T09:13:23.675Z,1014.27
2024-04-21T09:14:24.545Z,1014.36
2024-04-21T09:15:25.481Z,1014.32
2024-04-21T09:16:26.448Z,1014.35
2024-04-21T09:17:26.965Z,1014.40
2024-04-21T09:18:28.006Z,1014.36
2024-04-21T09:19:28.418Z,1014.40
2024-04-21T09:20:29.299Z,1014.39
2024-04-21T09:21:30.199Z,1014.41
2024-04-21T09:22:31.160Z,1014.36
2024-04-21T09:23:32.048Z,1014.36
2024-04-21T09:24:32.949Z,1014.40
2024-04-21T09:25:33.971Z,1014.40
2024-04-21T09:26:34.901Z,1014.41
2024-04-21T09:27:35.839Z,1014.40
2024-04-21T09:28:36.742Z,1014.39
2024-04-21T09:29:37.654Z,1014.41
2024-04-21T09:30:38.556Z,1014.44
2024-04-21T09:31:39.508Z,1014.41
2024-04-21T09:32:40.458Z,1014.38
2024-04-21T09:33:41.337Z,1014.43
2024-04-21T09:34:42.239Z,1014.55
2024-04-21T09:35:43.140Z,1014.46
2024-04-21T09:36:44.169Z,1014.47
2024-04-21T09:37:44.554Z,1014.45
2024-04-21T09:38:46.373Z,1014.40
2024-04-21T09:39:46.886Z,1014.43
2024-04-21T09:40:46.816Z,1014.40
2024-04-21T09:41:47.729Z,1014.39
2024-04-21T09:42:48.641Z,1014.40
2024-04-21T09:43:49.541Z,1014.41
2024-04-21T09:44:50.482Z,1014.43
2024-04-21T09:45:51.415Z,1014.41
2024-04-21T09:46:52.307Z,1014.45
2024-04-21T09:47:53.228Z,1014.46
2024-04-21T09:48:54.225Z,1014.48
2024-04-21T09:49:55.121Z,1014.52
2024-04-21T09:50:56.041Z,1014.57
2024-04-21T09:51:57.001Z,1014.54
2024-04-21T09:52:57.863Z,1014.58
2024-04-21T09:53:58.764Z,1014.60
2024-04-21T09:54:59.724Z,1014.58
2024-04-21T09:56:00.631Z,1014.64
2024-04-21T09:57:01.509Z,1014.57
2024-04-21T09:58:02.815Z,1014.65
2024-04-21T09:59:03.312Z,1014.65
2024-04-21T10:00:05.386Z,1014.65
2024-04-21T10:01:04.815Z,1014.63
2024-04-21T10:02:05.796Z,1014.64
2024-04-21T10:03:06.878Z,1014.62
2024-04-21T10:04:07.526Z,1014.63
2024-04-21T10:05:07.958Z,1014.61
2024-04-21T10:06:08.858Z,1014.59
2024-04-21T10:07:09.851Z,1014.56
2024-04-21T10:08:10.746Z,1014.59
2024-04-21T10:09:11.746Z,1014.58
2024-04-21T10:10:12.200Z,1014.59
2024-04-21T10:11:13.111Z,1014.64
2024-04-21T10:12:13.998Z,1014.64
2024-04-21T10:13:15.164Z,1014.66
2024-04-21T10:14:15.567Z,1014.67
2024-04-21T10:15:16.459Z,1014.71
2024-04-21T10:16:17.422Z,1014.67
2024-04-21T10:17:18.353Z,1014.67
2024-04-21T10:18:19.447Z,1014.70
2024-04-21T10:19:19.865Z,1014.72
2024-04-21T10:20:20.769Z,1014.75
2024-04-21T10:21:21.666Z,1014.71
2024-04-21T10:22:22.711Z,1014.73
2024-04-21T10:23:23.194Z,1014.69
2024-04-21T10:24:24.092Z,1014.70
2024-04-21T10:25:25.046Z,1014.71
2024-04-21T10:26:25.944Z,1014.71
2024-04-21T10:27:26.889Z,1014.73
2024-04-21T10:28:27.853Z,1014.71
2024-04-21T10:29:28.272Z,1014.72
2024-04-21T10:30:29.183Z,1014.70
2024-04-21T10:31:30.112Z,1014.68
2024-04-21T10:32:31.205Z,1014.64
2024-04-21T10:33:31.694Z,1014.66
2024-04-21T10:34:32.637Z,1014.66
2024-04-21T10:35:33.494Z,1014.70
2024-04-21T10:36:34.420Z,1014.69
2024-04-21T10:37:35.356Z,1014.67
2024-04-21T10:38:36.287Z,1014.69
2024-04-21T10:39:37.192Z,1014.70
2024-04-21T10:40:38.109Z,1014.78
2024-04-21T10:41:39.038Z,1014.73
2024-04-21T10:42:39.955Z,1014.72
2024-04-21T10:43:40.867Z,1014.73
2024-04-21T10:44:41.799Z,1014.72
2024-04-21T10:45:42.687Z,1014.69
2024-04-21T10:46:43.608Z,1014.67
2024-04-21T10:47:44.593Z,1014.66
2024-04-21T10:48:45.476Z,1014.68
2024-04-21T10:49:46.384Z,1014.76
2024-04-21T10:50:47.322Z,1014.71
2024-04-21T10:51:48.240Z,1014.68
2024-04-21T10:52:49.159Z,1014.64
2024-04-21T10:53:50.046Z,1014.78
2024-04-21T10:54:51.059Z,1014.72
2024-04-21T10:55:54.417Z,1014.73
2024-04-21T10:56:52.334Z,1014.68
2024-04-21T10:57:53.279Z,1014.68
2024-04-21T10:58:54.174Z,1014.67
2024-04-21T10:59:55.057Z,1014.66
2024-04-21T11:00:56.136Z,1014.70
2024-04-21T11:01:56.594Z,1014.71
2024-04-21T11:02:57.520Z,1014.67
2024-04-21T11:03:58.437Z,1014.66
2024-04-21T11:04:59.325Z,1014.66
2024-04-21T11:06:00.237Z,1014.64
2024-04-21T11:07:01.173Z,1014.62
2024-04-21T11:08:02.050Z,1014.65
2024-04-21T11:09:02.975Z,1014.66
2024-04-21T11:10:03.948Z,1014.63
2024-04-21T11:11:04.893Z,1014.64
2024-04-21T11:12:05.864Z,1014.66
2024-04-21T11:13:06.759Z,1014.71
2024-04-21T11:14:07.674Z,1014.65
2024-04-21T11:15:08.623Z,1014.71
2024-04-21T11:16:09.575Z,1014.73
2024-04-21T11:17:10.475Z,1014.77
2024-04-21T11:18:11.523Z,1014.66
2024-04-21T11:19:11.965Z,1014.66
2024-04-21T11:20:12.855Z,1014.68
2024-04-21T11:21:13.766Z,1014.61
2024-04-21T11:22:14.735Z,1014.66
2024-04-21T11:23:15.650Z,1014.72
2024-04-21T11:24:16.596Z,1014.67
2024-04-21T11:25:17.497Z,1014.73
2024-04-21T11:26:18.400Z,1014.66
2024-04-21T11:27:19.305Z,1014.73
2024-04-21T11:28:20.377Z,1014.72
2024-04-21T11:29:20.860Z,1014.70
2024-04-21T11:30:21.776Z,1014.73
2024-04-21T11:31:22.698Z,1014.74
2024-04-21T11:32:23.626Z,1014.73
2024-04-21T11:33:24.754Z,1014.69
2024-04-21T11:34:25.172Z,1014.65
2024-04-21T11:35:26.078Z,1014.71
2024-04-21T11:36:26.993Z,1014.69
2024-04-21T11:37:28.441Z,1014.78
2024-04-21T11:38:28.873Z,1014.81
2024-04-21T11:39:29.750Z,1014.78
2024-04-21T11:40:30.807Z,1014.72
2024-04-21T11:41:31.267Z,1014.72
2024-04-21T11:42:32.214Z,1014.71
2024-04-21T11:43:33.171Z,1014.71
2024-04-21T11:44:34.092Z,1014.74
2024-04-21T11:45:34.987Z,1014.84
2024-04-21T11:46:36.042Z,1014.78
2024-04-21T11:47:36.571Z,1014.82
2024-04-21T11:48:37.343Z,1014.76
2024-04-21T11:49:37.979Z,1014.81
2024-04-21T11:50:39.591Z,1014.70
2024-04-21T11:51:39.537Z,1014.76
2024-04-21T11:52:40.444Z,1014.70
2024-04-21T11:53:41.384Z,1014.64
2024-04-21T11:54:43.588Z,1014.75
2024-04-21T11:55:43.042Z,1014.84
2024-04-21T11:56:43.972Z,1014.81
2024-04-21T11:57:44.867Z,1014.79
2024-04-21T11:58:45.767Z,1014.78
2024-04-21T11:59:46.717Z,1014.79
2024-04-21T12:00:47.702Z,1014.78
2024-04-21T12:01:50.482Z,1014.87
2024-04-21T12:02:49.444Z,1014.85
2024-04-21T12:03:50.941Z,1014.73
2024-04-21T12:04:50.919Z,1014.80
2024-04-21T12:05:51.514Z,1014.80
2024-04-21T12:06:52.000Z,1014.75
2024-04-21T12:07:52.910Z,1014.74
2024-04-21T12:08:53.903Z,1014.69
2024-04-21T12:09:54.884Z,1014.73
2024-04-21T12:10:55.344Z,1014.77
2024-04-21T12:11:56.212Z,1014.74
2024-04-21T12:12:57.185Z,1014.72
2024-04-21T12:13:58.063Z,1014.71
2024-04-21T12:14:59.072Z,1014.74
2024-04-21T12:16:00.029Z,1014.74